createdAt,value
2018-07-13T00:01:43.978Z,84.61
2018-07-13T00:04:17.892Z,84.40
2018-07-13T00:06:51.705Z,83.73
2018-07-13T00:09:25.687Z,83.76
2018-07-13T00:11:59.690Z,84.98
2018-07-13T00:14:33.640Z,85.98
2018-07-13T00:17:07.668Z,86.51
2018-07-13T00:19:41.712Z,87.45
2018-07-13T00:22:15.763Z,86.15
2018-07-13T00:24:49.797Z,86.31
2018-07-13T00:27:23.707Z,86.35
2018-07-13T00:29:57.762Z,85.97
2018-07-13T00:32:31.626Z,84.91
2018-07-13T00:35:05.694Z,84.29
2018-07-13T00:37:39.604Z,83.26
2018-07-13T00:40:13.663Z,83.32
2018-07-13T00:42:47.551Z,85.05
2018-07-13T00:45:21.477Z,87.91
2018-07-13T00:47:55.444Z,88.98
2018-07-13T00:50:29.461Z,90.35
2018-07-13T00:53:03.403Z,91.97
2018-07-13T00:55:37.390Z,91.95
2018-07-13T00:58:11.441Z,91.60
2018-07-13T01:00:45.410Z,90.36
2018-07-13T01:03:19.318Z,90.42
2018-07-13T01:05:53.349Z,90.35
2018-07-13T01:08:27.193Z,90.30
2018-07-13T01:11:01.461Z,90.51
2018-07-13T01:13:35.533Z,90.37
2018-07-13T01:16:09.847Z,91.67
2018-07-13T01:18:43.831Z,91.93
2018-07-13T01:21:18.013Z,91.73
2018-07-13T01:23:51.856Z,91.24
2018-07-13T01:26:25.986Z,89.92
2018-07-13T01:28:59.913Z,89.47
2018-07-13T01:31:33.871Z,89.14
2018-07-13T01:34:07.662Z,90.61
2018-07-13T01:36:41.730Z,90.58
2018-07-13T01:39:15.660Z,89.81
2018-07-13T01:41:54.928Z,89.65
2018-07-13T01:44:28.970Z,90.68
2018-07-13T01:47:02.913Z,90.44
2018-07-13T01:49:36.937Z,89.60
2018-07-13T01:52:10.881Z,89.39
2018-07-13T01:54:44.818Z,89.37
2018-07-13T01:57:18.790Z,88.42
2018-07-13T01:59:52.820Z,88.13
2018-07-13T02:02:26.873Z,88.11
2018-07-13T02:05:00.793Z,88.68
2018-07-13T02:07:35.161Z,88.88
2018-07-13T02:10:09.231Z,90.40
2018-07-13T02:12:43.167Z,91.01
2018-07-13T02:15:17.090Z,90.69
2018-07-13T02:17:51.248Z,89.83
2018-07-13T02:20:25.177Z,89.26
2018-07-13T02:22:59.290Z,88.12
2018-07-13T02:25:33.262Z,87.75
2018-07-13T02:28:07.314Z,87.51
2018-07-13T02:30:41.211Z,86.81
2018-07-13T02:33:15.219Z,86.59
2018-07-13T02:35:49.170Z,86.12
2018-07-13T02:38:23.247Z,85.95
2018-07-13T02:40:57.173Z,86.66
2018-07-13T02:43:32.294Z,86.05
2018-07-13T02:46:06.159Z,87.77
2018-07-13T02:48:40.109Z,89.74
2018-07-13T02:51:14.140Z,89.99
2018-07-13T02:53:48.080Z,89.50
2018-07-13T02:56:22.020Z,88.63
2018-07-13T02:58:55.992Z,91.24
2018-07-13T03:01:30.017Z,93.06
2018-07-13T03:04:04.148Z,94.76
2018-07-13T03:06:37.978Z,95.70
2018-07-13T03:09:12.905Z,95.96
2018-07-13T03:11:46.932Z,94.99
2018-07-13T03:14:21.042Z,93.93
2018-07-13T03:16:55.590Z,93.07
2018-07-13T03:19:29.699Z,92.11
2018-07-13T03:22:03.686Z,91.41
2018-07-13T03:24:38.543Z,92.40
2018-07-13T03:27:12.614Z,92.65
2018-07-13T03:29:46.786Z,92.79
2018-07-13T03:32:20.751Z,92.29
2018-07-13T03:34:54.927Z,91.32
2018-07-13T03:37:28.901Z,92.11
2018-07-13T03:40:03.021Z,91.40
2018-07-13T03:42:36.879Z,90.63
2018-07-13T03:45:10.855Z,89.21
2018-07-13T03:47:44.725Z,88.20
2018-07-13T03:50:18.818Z,87.00
2018-07-13T03:52:52.878Z,85.69
2018-07-13T03:55:26.918Z,85.71
2018-07-13T03:58:00.855Z,85.25
2018-07-13T04:00:34.974Z,84.81
2018-07-13T04:03:08.950Z,84.78
2018-07-13T04:05:42.974Z,84.70
2018-07-13T04:08:17.084Z,83.21
2018-07-13T04:10:51.200Z,83.13
2018-07-13T04:13:25.278Z,85.33
2018-07-13T04:15:59.277Z,85.98
2018-07-13T04:18:33.165Z,87.00
2018-07-13T04:21:07.185Z,88.70
2018-07-13T04:23:41.353Z,89.48
2018-07-13T04:26:15.621Z,89.62
2018-07-13T04:28:50.510Z,89.09
2018-07-13T04:31:24.535Z,88.26
2018-07-13T04:33:58.520Z,87.64
2018-07-13T04:36:32.496Z,88.37
2018-07-13T04:39:13.486Z,87.12
2018-07-13T04:41:47.625Z,87.19
2018-07-13T04:44:21.632Z,86.57
2018-07-13T04:46:55.764Z,86.29
2018-07-13T04:49:29.797Z,87.36
2018-07-13T04:59:04.672Z,84.98
2018-07-13T05:01:38.853Z,82.56
2018-07-13T05:04:13.056Z,81.26
2018-07-13T05:06:47.501Z,80.17
2018-07-13T05:09:21.689Z,78.58
2018-07-13T05:11:55.732Z,77.57
2018-07-13T05:14:24.213Z,75.74
2018-07-13T05:16:52.597Z,74.61
2018-07-13T05:19:20.579Z,73.91
2018-07-13T05:21:48.775Z,72.58
2018-07-13T05:24:16.797Z,71.90
2018-07-13T05:33:43.936Z,70.55
2018-07-13T05:36:11.983Z,69.31
2018-07-13T05:38:40.055Z,69.08
2018-07-13T05:41:08.135Z,68.33
2018-07-13T05:43:36.194Z,68.36
2018-07-13T05:46:04.265Z,66.81
2018-07-13T05:48:32.471Z,67.38
2018-07-13T05:51:00.510Z,67.85
2018-07-13T05:53:28.560Z,66.21
2018-07-13T05:55:56.641Z,66.37
2018-07-13T05:58:24.702Z,67.62
2018-07-13T06:00:52.957Z,68.27
2018-07-13T06:03:21.128Z,66.09
2018-07-13T06:05:49.401Z,65.14
2018-07-13T06:08:17.425Z,62.93
2018-07-13T06:10:45.523Z,64.48
2018-07-13T06:13:13.584Z,63.29
2018-07-13T06:15:41.528Z,64.58
2018-07-13T06:18:09.650Z,65.51
2018-07-13T06:20:37.572Z,65.11
2018-07-13T06:23:05.462Z,62.78
2018-07-13T06:25:33.408Z,61.75
2018-07-13T06:28:01.429Z,63.25
2018-07-13T06:30:29.348Z,62.25
2018-07-13T06:32:57.369Z,60.61
2018-07-13T06:35:25.860Z,60.95
2018-07-13T06:37:53.869Z,62.47
2018-07-13T06:40:21.844Z,61.63
2018-07-13T06:42:49.716Z,61.37
2018-07-13T06:45:17.736Z,59.89
2018-07-13T06:47:45.725Z,58.38
2018-07-13T06:50:13.712Z,56.82
2018-07-13T06:52:42.177Z,57.08
2018-07-13T06:55:10.117Z,56.90
2018-07-13T06:57:49.103Z,55.97
2018-07-13T07:01:19.785Z,55.03
2018-07-13T07:04:53.854Z,56.69
2018-07-13T07:07:25.449Z,55.49
2018-07-13T07:09:55.627Z,56.32
2018-07-13T07:12:37.130Z,56.57
2018-07-13T07:15:05.254Z,53.42
2018-07-13T07:17:33.141Z,52.35
2018-07-13T07:20:01.117Z,51.68
2018-07-13T07:22:29.174Z,50.72
2018-07-13T07:24:57.125Z,51.38
2018-07-13T07:27:26.834Z,52.79
2018-07-13T07:30:01.023Z,52.33
2018-07-13T07:32:36.058Z,52.25
2018-07-13T07:35:10.536Z,53.40
2018-07-13T07:37:44.537Z,52.96
2018-07-13T07:40:18.662Z,52.30
2018-07-13T07:42:53.140Z,50.82
2018-07-13T07:45:21.111Z,49.63
2018-07-13T07:47:55.684Z,50.05
2018-07-13T07:50:23.561Z,50.67
2018-07-13T07:52:51.426Z,50.81
2018-07-13T07:55:19.342Z,51.15
2018-07-13T07:57:47.219Z,50.65
2018-07-13T08:00:15.139Z,50.02
2018-07-13T08:02:43.076Z,49.80
2018-07-13T08:05:10.961Z,48.72
2018-07-13T08:07:39.098Z,49.22
2018-07-13T08:10:07.294Z,46.54
2018-07-13T08:12:35.210Z,47.78
2018-07-13T08:15:03.205Z,47.88
2018-07-13T08:17:31.207Z,45.85
2018-07-13T08:19:59.158Z,44.26
2018-07-13T08:22:34.558Z,44.98
2018-07-13T08:25:04.952Z,45.09
2018-07-13T08:27:36.916Z,45.38
2018-07-13T08:30:06.283Z,44.86
2018-07-13T08:32:34.176Z,43.75
2018-07-13T08:35:02.155Z,43.41
2018-07-13T08:37:30.241Z,43.41
2018-07-13T08:39:58.194Z,43.22
2018-07-13T08:42:27.224Z,42.43
2018-07-13T08:44:55.476Z,43.16
2018-07-13T08:47:24.209Z,43.01
2018-07-13T08:49:52.350Z,42.95
2018-07-13T08:52:20.454Z,41.66
2018-07-13T08:54:49.464Z,40.53
2018-07-13T08:57:17.687Z,39.80
2018-07-13T08:59:45.969Z,38.64
2018-07-13T09:02:13.930Z,39.38
2018-07-13T09:04:42.019Z,40.63
2018-07-13T09:07:10.381Z,38.93
2018-07-13T09:09:39.173Z,41.21
2018-07-13T09:12:07.330Z,40.84
2018-07-13T09:14:35.504Z,40.78
2018-07-13T09:17:03.493Z,41.50
2018-07-13T09:19:31.508Z,38.71
2018-07-13T09:21:59.438Z,37.31
2018-07-13T09:24:27.502Z,37.12
2018-07-13T09:26:57.013Z,35.93
2018-07-13T09:29:24.921Z,33.12
2018-07-13T09:31:52.928Z,33.13
2018-07-13T09:34:21.856Z,33.03
2018-07-13T09:36:49.820Z,33.10
2018-07-13T09:39:19.053Z,32.94
2018-07-13T09:41:47.265Z,33.44
2018-07-13T09:44:20.607Z,31.60
2018-07-13T09:46:48.788Z,33.03
2018-07-13T09:49:16.647Z,33.24
2018-07-13T09:51:44.615Z,32.86
2018-07-13T09:54:12.641Z,34.28
2018-07-13T09:56:40.681Z,35.24
2018-07-13T09:59:08.659Z,33.16
2018-07-13T10:01:36.745Z,33.25
2018-07-13T10:04:04.818Z,32.52
2018-07-13T10:06:32.853Z,34.16
2018-07-13T10:09:01.764Z,33.51
2018-07-13T10:11:29.851Z,33.69
2018-07-13T10:13:58.270Z,31.42
2018-07-13T10:16:26.337Z,30.76
2018-07-13T10:18:57.189Z,31.33
2018-07-13T10:21:25.311Z,32.60
2018-07-13T10:23:53.508Z,34.61
2018-07-13T10:26:31.985Z,32.99
2018-07-13T10:29:00.252Z,34.34
2018-07-13T10:31:28.402Z,33.02
2018-07-13T10:33:56.590Z,32.15
2018-07-13T10:36:24.854Z,31.69
2018-07-13T10:38:56.006Z,31.57
2018-07-13T10:41:23.981Z,32.18
2018-07-13T10:43:51.983Z,32.24
2018-07-13T10:47:44.379Z,32.35
2018-07-13T10:50:13.388Z,33.49
2018-07-13T10:52:41.295Z,31.46
2018-07-13T10:55:09.290Z,29.77
2018-07-13T10:57:37.231Z,33.58
2018-07-13T11:00:05.210Z,33.09
2018-07-13T11:02:33.102Z,32.42
2018-07-13T11:05:01.049Z,32.78
2018-07-13T11:07:29.123Z,33.14
2018-07-13T11:09:57.015Z,30.47
2018-07-13T11:12:24.997Z,32.94
2018-07-13T11:14:52.935Z,30.71
2018-07-13T11:17:20.848Z,32.54
2018-07-13T11:21:13.197Z,28.61
2018-07-13T11:23:41.147Z,30.57
2018-07-13T11:26:09.103Z,31.89
2018-07-13T11:28:37.111Z,31.68
2018-07-13T11:31:05.011Z,31.28
2018-07-13T11:33:33.014Z,31.80
2018-07-13T11:36:01.021Z,33.26
2018-07-13T11:38:30.738Z,34.64
2018-07-13T11:40:59.159Z,36.11
2018-07-13T11:43:27.065Z,37.38
2018-07-13T11:45:54.997Z,34.15
2018-07-13T11:48:22.858Z,33.24
2018-07-13T11:50:51.161Z,30.08
2018-07-13T11:53:19.197Z,29.22
2018-07-13T11:55:47.120Z,31.69
2018-07-13T11:58:15.046Z,30.23
2018-07-13T12:00:42.985Z,30.47
2018-07-13T12:03:10.864Z,30.67
2018-07-13T12:05:38.765Z,32.52
2018-07-13T12:08:07.637Z,32.05
2018-07-13T12:10:35.561Z,33.22
2018-07-13T12:13:03.555Z,32.40
2018-07-13T12:15:31.503Z,32.04
2018-07-13T12:17:59.373Z,34.00
2018-07-13T12:20:27.334Z,33.69
2018-07-13T12:23:00.362Z,33.10
2018-07-13T12:25:28.615Z,35.01
2018-07-13T12:27:56.493Z,34.88
2018-07-13T12:30:24.386Z,34.77
2018-07-13T12:32:52.339Z,35.23
2018-07-13T12:35:21.881Z,34.76
2018-07-13T12:37:49.934Z,34.09
2018-07-13T12:40:17.857Z,36.60
2018-07-13T12:42:48.987Z,35.76
2018-07-13T12:45:16.893Z,35.13
2018-07-13T12:47:44.830Z,36.13
2018-07-13T12:50:12.760Z,36.69
2018-07-13T12:52:40.631Z,38.63
2018-07-13T12:55:08.779Z,38.77
2018-07-13T12:57:36.670Z,39.40
2018-07-13T13:00:04.609Z,40.87
2018-07-13T13:02:32.553Z,38.81
2018-07-13T13:05:00.436Z,39.03
2018-07-13T13:07:28.363Z,37.95
2018-07-13T13:09:56.277Z,38.01
2018-07-13T13:12:24.150Z,35.63
2018-07-13T13:14:52.033Z,35.74
2018-07-13T13:17:20.006Z,37.12
2018-07-13T13:19:47.886Z,37.48
2018-07-13T13:22:15.756Z,37.97
2018-07-13T13:24:43.682Z,38.82
2018-07-13T13:27:11.553Z,39.68
2018-07-13T13:29:39.456Z,38.28
2018-07-13T13:32:11.266Z,39.42
2018-07-13T13:34:39.140Z,40.19
2018-07-13T13:37:07.122Z,40.61
2018-07-13T13:39:35.469Z,40.12
2018-07-13T13:42:03.368Z,40.42
2018-07-13T13:44:31.234Z,39.32
2018-07-13T13:46:59.185Z,36.41
2018-07-13T13:49:27.058Z,34.35
2018-07-13T13:51:54.941Z,33.38
2018-07-13T13:54:22.886Z,32.50
2018-07-13T13:56:50.784Z,33.13
2018-07-13T13:59:18.878Z,32.93
2018-07-13T14:01:46.865Z,31.46
2018-07-13T14:04:14.751Z,31.12
2018-07-13T14:06:42.624Z,30.40
2018-07-13T14:09:10.562Z,31.09
2018-07-13T14:11:38.493Z,30.19
2018-07-13T14:14:06.430Z,30.69
2018-07-13T14:16:34.352Z,31.18
2018-07-13T14:19:02.249Z,31.35
2018-07-13T14:21:30.208Z,30.29
2018-07-13T14:23:58.128Z,31.46
2018-07-13T14:26:25.992Z,30.87
2018-07-13T14:28:54.198Z,30.20
2018-07-13T14:31:22.152Z,31.05
2018-07-13T14:33:50.042Z,33.25
2018-07-13T14:36:18.086Z,35.01
2018-07-13T14:38:45.997Z,35.07
2018-07-13T14:41:14.021Z,33.45
2018-07-13T14:43:42.036Z,33.36
2018-07-13T14:46:10.032Z,32.55
2018-07-13T14:48:37.976Z,32.39
2018-07-13T14:51:06.079Z,29.68
2018-07-13T14:53:34.063Z,29.83
2018-07-13T14:56:02.057Z,28.74
2018-07-13T14:58:30.058Z,27.79
2018-07-13T15:00:58.065Z,27.53
2018-07-13T15:03:26.063Z,26.30
2018-07-13T15:05:53.987Z,25.93
2018-07-13T15:08:21.962Z,27.61
2018-07-13T15:10:49.859Z,26.68
2018-07-13T15:13:17.741Z,26.69
2018-07-13T15:15:45.800Z,26.17
2018-07-13T15:18:13.727Z,26.59
2018-07-13T15:20:41.730Z,26.10
2018-07-13T15:23:09.641Z,26.18
2018-07-13T15:25:37.558Z,26.01
2018-07-13T15:28:08.987Z,25.40
2018-07-13T15:30:37.825Z,24.55
2018-07-13T15:33:05.875Z,26.49
2018-07-13T15:35:34.234Z,26.61
2018-07-13T15:38:02.179Z,24.92
2018-07-13T15:40:30.070Z,25.58
2018-07-13T15:42:58.411Z,25.86
2018-07-13T15:45:26.390Z,30.72
2018-07-13T15:47:54.261Z,34.17
2018-07-13T15:50:22.167Z,35.15
2018-07-13T15:52:50.195Z,35.17
2018-07-13T15:55:18.091Z,37.44
2018-07-13T15:57:45.967Z,40.03
2018-07-13T16:00:13.960Z,39.09
2018-07-13T16:02:41.854Z,40.86
2018-07-13T16:05:09.774Z,41.40
2018-07-13T16:07:37.685Z,44.43
2018-07-13T16:10:05.630Z,45.71
2018-07-13T16:12:33.523Z,46.22
2018-07-13T16:15:01.501Z,46.05
2018-07-13T16:17:29.413Z,45.35
2018-07-13T16:19:57.310Z,44.87
2018-07-13T16:22:25.225Z,44.47
2018-07-13T16:24:53.118Z,45.71
2018-07-13T16:27:21.005Z,44.37
2018-07-13T16:29:48.932Z,44.60
2018-07-13T16:32:16.828Z,46.02
2018-07-13T16:34:44.860Z,46.40
2018-07-13T16:37:12.888Z,45.75
2018-07-13T16:39:40.799Z,47.04
2018-07-13T16:42:08.683Z,46.65
2018-07-13T16:44:36.661Z,47.21
2018-07-13T16:47:04.566Z,46.68
2018-07-13T16:49:32.467Z,45.63
2018-07-13T16:52:00.408Z,46.13
2018-07-13T16:54:28.294Z,45.86
2018-07-13T16:56:56.145Z,45.47
2018-07-13T16:59:24.387Z,46.04
2018-07-13T17:01:52.403Z,46.42
2018-07-13T17:04:20.304Z,46.45
2018-07-13T17:06:48.229Z,45.49
2018-07-13T17:09:16.262Z,45.36
2018-07-13T17:11:44.132Z,47.61
2018-07-13T17:14:12.841Z,50.69
2018-07-13T17:16:40.724Z,51.19
2018-07-13T17:19:08.604Z,51.60
2018-07-13T17:21:36.610Z,51.59
2018-07-13T17:24:04.493Z,52.80
2018-07-13T17:26:32.378Z,52.86
2018-07-13T17:29:00.308Z,51.29
2018-07-13T17:31:28.301Z,54.07
2018-07-13T17:33:56.167Z,55.51
2018-07-13T17:36:24.118Z,56.36
2018-07-13T17:38:52.008Z,53.03
2018-07-13T17:41:19.908Z,53.71
2018-07-13T17:43:48.264Z,55.97
2018-07-13T17:46:16.218Z,54.46
2018-07-13T17:48:44.109Z,55.68
2018-07-13T17:51:12.025Z,55.84
2018-07-13T17:53:39.900Z,57.42
2018-07-13T17:56:08.041Z,56.87
2018-07-13T17:58:35.980Z,57.99
2018-07-13T18:01:03.924Z,58.67
2018-07-13T18:03:31.791Z,60.07
2018-07-13T18:05:59.783Z,61.22
2018-07-13T18:08:27.660Z,62.21
2018-07-13T18:10:55.634Z,60.72
2018-07-13T18:13:23.517Z,60.76
2018-07-13T18:15:51.430Z,59.83
2018-07-13T18:18:19.298Z,63.12
2018-07-13T18:20:47.227Z,60.58
2018-07-13T18:23:15.139Z,63.30
2018-07-13T18:25:43.040Z,64.76
2018-07-13T18:28:11.056Z,65.59
2018-07-13T18:30:38.905Z,64.90
2018-07-13T18:33:07.083Z,67.75
2018-07-13T18:35:35.030Z,68.02
2018-07-13T18:38:02.913Z,66.75
2018-07-13T18:40:30.784Z,66.54
2018-07-13T18:42:58.695Z,65.86
2018-07-13T18:45:26.562Z,64.17
2018-07-13T18:47:57.842Z,62.55
2018-07-13T18:50:25.856Z,62.76
2018-07-13T18:52:53.749Z,64.85
2018-07-13T18:55:21.802Z,63.95
2018-07-13T18:57:49.777Z,64.27
2018-07-13T19:00:17.676Z,65.08
2018-07-13T19:02:45.575Z,62.78
2018-07-13T19:05:13.508Z,62.69
2018-07-13T19:07:42.157Z,63.84
2018-07-13T19:10:10.075Z,64.33
2018-07-13T19:12:38.053Z,64.62
2018-07-13T19:15:06.050Z,64.34
2018-07-13T19:17:33.999Z,65.62
2018-07-13T19:20:02.015Z,66.60
2018-07-13T19:22:29.932Z,66.55
2018-07-13T19:24:57.889Z,67.90
2018-07-13T19:27:25.841Z,67.56
2018-07-13T19:29:53.882Z,67.62
2018-07-13T19:32:21.801Z,69.02
2018-07-13T19:34:49.820Z,68.87
2018-07-13T19:37:18.107Z,69.42
2018-07-13T19:39:46.032Z,70.34
2018-07-13T19:42:13.976Z,68.34
2018-07-13T19:44:42.172Z,69.36
2018-07-13T19:47:10.184Z,68.21
2018-07-13T19:49:38.319Z,69.65
2018-07-13T19:52:06.221Z,69.79
2018-07-13T19:54:34.148Z,70.25
2018-07-13T19:57:02.459Z,70.30
2018-07-13T19:59:36.322Z,70.59
2018-07-13T20:02:10.338Z,70.79
2018-07-13T20:04:44.274Z,72.28
2018-07-13T20:07:18.476Z,73.84
2018-07-13T20:09:52.503Z,75.54
2018-07-13T20:12:26.801Z,76.37
2018-07-13T20:15:00.722Z,76.42
2018-07-13T20:17:34.706Z,76.29
2018-07-13T20:20:09.146Z,76.80
2018-07-13T20:22:43.182Z,77.65
2018-07-13T20:25:17.313Z,77.15
2018-07-13T20:27:51.346Z,76.20
2018-07-13T20:30:25.443Z,75.91
2018-07-13T20:32:59.385Z,74.32
2018-07-13T20:35:33.196Z,70.98
2018-07-13T20:38:07.530Z,71.77
2018-07-13T20:40:41.463Z,71.66
2018-07-13T20:43:15.472Z,71.15
2018-07-13T20:45:49.515Z,73.84
2018-07-13T20:48:23.485Z,75.13
2018-07-13T20:50:57.549Z,76.37
2018-07-13T20:53:31.596Z,77.79
2018-07-13T20:56:05.591Z,78.38
2018-07-13T20:58:39.637Z,78.12
2018-07-13T21:01:13.558Z,77.72
2018-07-13T21:03:47.425Z,76.88
2018-07-13T21:06:21.393Z,76.38
2018-07-13T21:08:55.427Z,76.21
2018-07-13T21:11:29.372Z,75.41
2018-07-13T21:14:03.590Z,75.94
2018-07-13T21:16:37.609Z,75.32
2018-07-13T21:19:11.601Z,76.20
2018-07-13T21:21:45.612Z,75.66
2018-07-13T21:24:19.636Z,75.59
2018-07-13T21:26:53.688Z,75.40
2018-07-13T21:29:27.600Z,75.81
2018-07-13T21:32:03.297Z,76.00
2018-07-13T21:34:37.433Z,76.04
2018-07-13T21:37:11.421Z,76.89
2018-07-13T21:39:45.502Z,76.90
2018-07-13T21:42:19.376Z,77.18
2018-07-13T21:44:58.181Z,74.50
2018-07-13T21:47:36.835Z,73.48
2018-07-13T21:50:16.747Z,75.65
2018-07-13T21:52:52.554Z,77.80
2018-07-13T21:55:28.426Z,80.39
2018-07-13T21:58:05.978Z,81.23
2018-07-13T22:00:40.370Z,81.95
2018-07-13T22:06:11.907Z,84.18
2018-07-13T22:10:10.186Z,84.07
2018-07-13T22:12:44.174Z,83.46
2018-07-13T22:15:18.116Z,82.92
2018-07-13T22:17:52.398Z,82.60
2018-07-13T22:20:26.305Z,81.79
2018-07-13T22:23:00.293Z,81.06
2018-07-13T22:25:34.217Z,80.44
2018-07-13T22:28:08.128Z,79.36
2018-07-13T22:30:42.515Z,78.65
2018-07-13T22:33:16.746Z,79.49
2018-07-13T22:35:51.009Z,79.57
2018-07-13T22:38:24.997Z,78.66
2018-07-13T22:40:59.392Z,77.66
2018-07-13T22:43:33.386Z,77.66
2018-07-13T22:46:07.449Z,78.63
2018-07-13T22:48:41.598Z,81.37
2018-07-13T22:51:15.553Z,82.08
2018-07-13T22:53:49.633Z,81.15
2018-07-13T22:56:23.538Z,81.20
2018-07-13T22:58:57.717Z,80.79
2018-07-13T23:01:31.726Z,80.37
2018-07-13T23:04:10.921Z,81.43
2018-07-13T23:06:44.825Z,81.80
2018-07-13T23:09:18.955Z,81.82
2018-07-13T23:14:46.181Z,84.00
2018-07-13T23:17:20.268Z,83.18
2018-07-13T23:19:54.462Z,83.22
2018-07-13T23:22:28.405Z,83.79
2018-07-13T23:25:02.400Z,83.51
2018-07-13T23:27:36.411Z,83.99
2018-07-13T23:30:10.485Z,84.46
2018-07-13T23:32:44.351Z,84.90
2018-07-13T23:35:18.350Z,83.98
2018-07-13T23:37:52.840Z,83.61
2018-07-13T23:40:26.945Z,84.92
2018-07-13T23:43:00.847Z,84.56
2018-07-13T23:45:34.845Z,84.24
2018-07-13T23:48:08.790Z,85.25
2018-07-13T23:50:43.238Z,85.84
2018-07-13T23:53:17.174Z,87.46
2018-07-13T23:55:51.265Z,87.67
2018-07-13T23:58:25.308Z,87.67
